No particular awareness of the weather is required.    There are no Weather-warnings


Meteo18 Weather Cam more information Meteo18 Weather Cam


Thunder radar more information blitzortung!


Rain radar more information rain snow radar


Visit our other weather sites:

Template documentation
and downloads

And another site



Weather Underground History page Text

Daily Summary for August 3, 2016 Units:  Metric    English   Both
« Previous Day
Next Day »
Daily Weekly Monthly Yearly Custom
  High: Low: Average:
Temperature: 28.8 °C 12.8 °C 20.8 °C
Dew Point: 15.1 °C 11.8 °C 13.7 °C
Humidity: 95 % 39 % 67 %
Wind Speed: 24.1 km/h 0.0 km/h 6 km/h
Wind Gust: 29.0 km/h - -
Wind:- - WSW
Pressure: 1018.5 hPa 1013.1 hPa -
Precipitation: 0.0 mm    
Historical Graphs
 
 
Tabular Data for August 3, 2016
Time Temperature Dew Point Pressure Wind Wind Speed Wind Gust Humidity Rainfall Rate (Hourly)
00:02 18.6 °C 13.9 °C 1018.2 hPa SW 1.6 km/h 6.4 km/h 74 % 0.0 mm
00:07 18.4 °C 13.9 °C 1018.5 hPa SW 1.6 km/h 6.4 km/h 75 % 0.0 mm
00:12 18.3 °C 14.0 °C 1018.5 hPa SW 1.6 km/h 4.8 km/h 76 % 0.0 mm
00:17 18.4 °C 13.9 °C 1018.5 hPa WSW 1.6 km/h 6.4 km/h 75 % 0.0 mm
00:22 18.6 °C 14.1 °C 1018.5 hPa SSW 4.8 km/h 8.0 km/h 75 % 0.0 mm
00:27 18.7 °C 14.0 °C 1018.5 hPa WSW 4.8 km/h 8.0 km/h 74 % 0.0 mm
00:32 18.7 °C 14.0 °C 1018.5 hPa Calm   8.0 km/h 74 % 0.0 mm
00:37 18.6 °C 14.1 °C 1018.5 hPa SW 3.2 km/h 8.0 km/h 75 % 0.0 mm
00:42 18.4 °C 13.9 °C 1018.5 hPa SW 4.8 km/h 8.0 km/h 75 % 0.0 mm
00:47 18.4 °C 13.9 °C 1018.5 hPa SSW 1.6 km/h 6.4 km/h 75 % 0.0 mm
00:52 18.3 °C 14.0 °C 1018.5 hPa SW 4.8 km/h 8.0 km/h 76 % 0.0 mm
00:57 18.3 °C 14.0 °C 1018.5 hPa SW 3.2 km/h 8.0 km/h 76 % 0.0 mm
01:02 18.3 °C 14.0 °C 1018.5 hPa SW 4.8 km/h 8.0 km/h 76 % 0.0 mm
01:07 18.2 °C 13.9 °C 1018.5 hPa SW 4.8 km/h 9.7 km/h 76 % 0.0 mm
01:12 18.2 °C 13.9 °C 1018.5 hPa SW 4.8 km/h 9.7 km/h 76 % 0.0 mm
01:17 18.2 °C 14.1 °C 1018.2 hPa WSW 4.8 km/h 9.7 km/h 77 % 0.0 mm
01:22 18.1 °C 14.0 °C 1018.2 hPa WSW 3.2 km/h 9.7 km/h 77 % 0.0 mm
01:27 17.9 °C 13.8 °C 1018.2 hPa WSW 6.4 km/h 9.7 km/h 77 % 0.0 mm
01:32 17.9 °C 13.8 °C 1018.2 hPa SW 4.8 km/h 9.7 km/h 77 % 0.0 mm
01:37 17.7 °C 13.8 °C 1018.2 hPa SW 3.2 km/h 9.7 km/h 78 % 0.0 mm
01:42 17.7 °C 13.8 °C 1018.2 hPa SW 3.2 km/h 9.7 km/h 78 % 0.0 mm
01:47 17.6 °C 13.9 °C 1018.2 hPa SW 1.6 km/h 9.7 km/h 79 % 0.0 mm
01:52 17.4 °C 13.7 °C 1018.2 hPa WSW 1.6 km/h 8.0 km/h 79 % 0.0 mm
01:57 17.3 °C 13.6 °C 1018.2 hPa SW 1.6 km/h 8.0 km/h 79 % 0.0 mm
02:02 17.2 °C 13.7 °C 1018.2 hPa SW 1.6 km/h 8.0 km/h 80 % 0.0 mm
02:07 17.1 °C 13.6 °C 1018.2 hPa Calm   8.0 km/h 80 % 0.0 mm
02:12 16.9 °C 13.4 °C 1018.2 hPa Calm   8.0 km/h 80 % 0.0 mm
02:17 16.7 °C 13.2 °C 1018.2 hPa Calm   8.0 km/h 80 % 0.0 mm
02:22 16.2 °C 12.9 °C 1018.2 hPa Calm   3.2 km/h 81 % 0.0 mm
02:27 15.8 °C 12.9 °C 1018.2 hPa Calm   1.6 km/h 83 % 0.0 mm
02:32 15.6 °C 12.9 °C 1018.2 hPa Calm   1.6 km/h 84 % 0.0 mm
02:37 15.4 °C 12.7 °C 1018.2 hPa Calm   3.2 km/h 84 % 0.0 mm
02:42 15.2 °C 12.5 °C 1018.2 hPa Calm   3.2 km/h 84 % 0.0 mm
02:47 15.0 °C 12.5 °C 1018.2 hPa Calm   1.6 km/h 85 % 0.0 mm
02:52 15.0 °C 13.0 °C 1018.2 hPa SSW 1.6 km/h 1.6 km/h 88 % 0.0 mm
02:57 15.1 °C 12.8 °C 1018.2 hPa Calm   3.2 km/h 86 % 0.0 mm
03:02 14.8 °C 12.5 °C 1018.2 hPa Calm   3.2 km/h 86 % 0.0 mm
03:07 14.7 °C 12.4 °C 1018.2 hPa Calm   3.2 km/h 86 % 0.0 mm
03:12 14.4 °C 12.3 °C 1018.2 hPa Calm   1.6 km/h 87 % 0.0 mm
03:17 14.3 °C 12.3 °C 1018.2 hPa SSW 1.6 km/h   88 % 0.0 mm
03:22 14.3 °C 12.5 °C 1018.2 hPa Calm   1.6 km/h 89 % 0.0 mm
03:32 14.2 °C 12.4 °C 1018.2 hPa Calm   1.6 km/h 89 % 0.0 mm
03:37 14.1 °C 12.3 °C 1017.8 hPa SSE 1.6 km/h 3.2 km/h 89 % 0.0 mm
03:42 14.1 °C 12.3 °C 1017.8 hPa Calm   3.2 km/h 89 % 0.0 mm
03:47 14.0 °C 12.2 °C 1017.8 hPa Calm   3.2 km/h 89 % 0.0 mm
03:52 14.0 °C 12.4 °C 1017.8 hPa Calm   3.2 km/h 90 % 0.0 mm
03:57 13.9 °C 12.3 °C 1017.8 hPa Calm   3.2 km/h 90 % 0.0 mm
04:02 13.9 °C 12.3 °C 1017.8 hPa Calm   1.6 km/h 90 % 0.0 mm
04:07 13.8 °C 12.2 °C 1017.8 hPa SSE 1.6 km/h 1.6 km/h 90 % 0.0 mm
04:12 13.8 °C 12.2 °C 1017.8 hPa Calm   1.6 km/h 90 % 0.0 mm
04:17 13.7 °C 12.1 °C 1017.8 hPa South 1.6 km/h 3.2 km/h 90 % 0.0 mm
04:22 13.6 °C 12.0 °C 1017.8 hPa SSE 1.6 km/h 3.2 km/h 90 % 0.0 mm
04:27 13.4 °C 11.8 °C 1017.8 hPa Calm   1.6 km/h 90 % 0.0 mm
04:32 13.4 °C 12.0 °C 1017.8 hPa Calm   1.6 km/h 91 % 0.0 mm
04:37 13.3 °C 11.9 °C 1017.8 hPa Calm   1.6 km/h 91 % 0.0 mm
04:42 13.3 °C 11.9 °C 1017.8 hPa South 1.6 km/h   91 % 0.0 mm
04:47 13.2 °C 11.8 °C 1017.8 hPa SSW 3.2 km/h 3.2 km/h 91 % 0.0 mm
04:52 13.3 °C 11.9 °C 1017.5 hPa SSW 3.2 km/h 4.8 km/h 91 % 0.0 mm
04:57 13.4 °C 12.1 °C 1017.5 hPa SSW 3.2 km/h 4.8 km/h 92 % 0.0 mm
05:02 13.6 °C 12.5 °C 1017.5 hPa SW 1.6 km/h 4.8 km/h 93 % 0.0 mm
05:12 13.9 °C 12.8 °C 1017.5 hPa SW 3.2 km/h 4.8 km/h 93 % 0.0 mm
05:17 14.1 °C 12.8 °C 1017.5 hPa SSW 3.2 km/h 4.8 km/h 92 % 0.0 mm
05:22 14.0 °C 12.7 °C 1017.5 hPa SW 3.2 km/h 4.8 km/h 92 % 0.0 mm
05:32 13.9 °C 12.6 °C 1017.5 hPa SSW 3.2 km/h 4.8 km/h 92 % 0.0 mm
05:37 13.8 °C 12.4 °C 1017.5 hPa SSW 1.6 km/h 4.8 km/h 91 % 0.0 mm
05:42 13.6 °C 12.3 °C 1017.5 hPa SSW 1.6 km/h 4.8 km/h 92 % 0.0 mm
05:47 13.5 °C 12.2 °C 1017.5 hPa SW 3.2 km/h 4.8 km/h 92 % 0.0 mm
05:52 13.3 °C 12.0 °C 1017.2 hPa SSW 1.6 km/h 4.8 km/h 92 % 0.0 mm
05:57 13.2 °C 11.9 °C 1017.2 hPa SSW 3.2 km/h 4.8 km/h 92 % 0.0 mm
06:02 12.9 °C 11.8 °C 1017.2 hPa SSW 3.2 km/h 4.8 km/h 93 % 0.0 mm
06:12 12.8 °C 11.9 °C 1017.2 hPa SW 3.2 km/h 6.4 km/h 94 % 0.0 mm
06:17 12.9 °C 12.0 °C 1017.5 hPa South 3.2 km/h 6.4 km/h 94 % 0.0 mm
06:22 13.1 °C 12.2 °C 1017.2 hPa SW 3.2 km/h 8.0 km/h 94 % 0.0 mm
06:27 13.1 °C 12.2 °C 1017.5 hPa SW 3.2 km/h 8.0 km/h 94 % 0.0 mm
06:32 13.1 °C 12.2 °C 1017.5 hPa SW 4.8 km/h 8.0 km/h 94 % 0.0 mm
06:37 13.2 °C 12.4 °C 1017.5 hPa WSW 8.0 km/h 8.0 km/h 95 % 0.0 mm
06:42 13.4 °C 12.6 °C 1017.5 hPa SW 3.2 km/h 9.7 km/h 95 % 0.0 mm
06:52 13.5 °C 12.6 °C 1017.2 hPa SSW 4.8 km/h 9.7 km/h 94 % 0.0 mm
07:02 13.2 °C 12.1 °C 1017.2 hPa SSW 1.6 km/h 8.0 km/h 93 % 0.0 mm
07:12 13.0 °C 11.9 °C 1017.2 hPa SSW 1.6 km/h 4.8 km/h 93 % 0.0 mm
07:17 13.0 °C 12.1 °C 1017.2 hPa Calm   4.8 km/h 94 % 0.0 mm
07:22 13.1 °C 12.2 °C 1017.2 hPa SSW 1.6 km/h 6.4 km/h 94 % 0.0 mm
07:27 13.2 °C 12.3 °C 1017.2 hPa SW 3.2 km/h 6.4 km/h 94 % 0.0 mm
07:32 13.2 °C 12.3 °C 1017.2 hPa SW 1.6 km/h 6.4 km/h 94 % 0.0 mm
07:37 13.3 °C 12.4 °C 1017.2 hPa SSW 3.2 km/h 4.8 km/h 94 % 0.0 mm
07:42 13.6 °C 12.7 °C 1017.2 hPa SSW 1.6 km/h 4.8 km/h 94 % 0.0 mm
07:52 14.0 °C 12.9 °C 1017.2 hPa Calm   3.2 km/h 93 % 0.0 mm
08:02 14.4 °C 13.1 °C 1017.2 hPa SSW 3.2 km/h 3.2 km/h 92 % 0.0 mm
08:12 14.7 °C 13.6 °C 1017.2 hPa SW 4.8 km/h 6.4 km/h 93 % 0.0 mm
08:17 14.8 °C 13.7 °C 1017.2 hPa WSW 1.6 km/h 11.3 km/h 93 % 0.0 mm
08:22 14.9 °C 13.8 °C 1017.2 hPa SSW 1.6 km/h 11.3 km/h 93 % 0.0 mm
08:27 15.1 °C 13.8 °C 1017.2 hPa SW 9.7 km/h 11.3 km/h 92 % 0.0 mm
08:32 15.3 °C 14.0 °C 1017.2 hPa SW 8.0 km/h 12.9 km/h 92 % 0.0 mm
08:42 15.8 °C 14.3 °C 1017.5 hPa SW 9.7 km/h 12.9 km/h 91 % 0.0 mm
08:47 15.9 °C 14.3 °C 1017.2 hPa South 3.2 km/h 12.9 km/h 90 % 0.0 mm
08:52 16.2 °C 14.6 °C 1017.2 hPa SSW 4.8 km/h 12.9 km/h 90 % 0.0 mm
08:57 16.2 °C 14.4 °C 1017.2 hPa WSW 3.2 km/h 9.7 km/h 89 % 0.0 mm
09:02 16.2 °C 14.2 °C 1017.2 hPa SW 4.8 km/h 11.3 km/h 88 % 0.0 mm
09:07 16.3 °C 14.3 °C 1017.2 hPa South 3.2 km/h 12.9 km/h 88 % 0.0 mm
09:12 16.6 °C 14.6 °C 1017.2 hPa Calm   12.9 km/h 88 % 0.0 mm
09:17 16.9 °C 14.7 °C 1017.2 hPa WSW 4.8 km/h 12.9 km/h 87 % 0.0 mm
09:22 17.1 °C 14.6 °C 1017.2 hPa West 6.4 km/h 14.5 km/h 85 % 0.0 mm
09:32 17.7 °C 14.6 °C 1017.2 hPa SW 12.9 km/h 17.7 km/h 82 % 0.0 mm
09:37 17.8 °C 14.5 °C 1017.2 hPa West 11.3 km/h 22.5 km/h 81 % 0.0 mm
09:42 17.9 °C 14.4 °C 1017.2 hPa WSW 19.3 km/h 22.5 km/h 80 % 0.0 mm
09:47 17.9 °C 14.4 °C 1017.2 hPa SW 11.3 km/h 24.1 km/h 80 % 0.0 mm
09:52 18.0 °C 14.5 °C 1017.2 hPa West 11.3 km/h 24.1 km/h 80 % 0.0 mm
10:02 18.1 °C 14.4 °C 1017.2 hPa SW 9.7 km/h 19.3 km/h 79 % 0.0 mm
10:07 18.2 °C 14.3 °C 1017.2 hPa SSE 11.3 km/h 24.1 km/h 78 % 0.0 mm
10:12 18.3 °C 14.2 °C 1017.2 hPa WSW 20.9 km/h 24.1 km/h 77 % 0.0 mm
10:22 18.3 °C 14.0 °C 1017.2 hPa West 8.0 km/h 27.4 km/h 76 % 0.0 mm
10:27 18.3 °C 14.0 °C 1017.2 hPa West 12.9 km/h 27.4 km/h 76 % 0.0 mm
10:32 18.3 °C 14.0 °C 1017.2 hPa WSW 8.0 km/h 27.4 km/h 76 % 0.0 mm
10:37 18.4 °C 13.9 °C 1017.2 hPa SW 22.5 km/h 27.4 km/h 75 % 0.0 mm
10:42 18.4 °C 14.1 °C 1017.2 hPa WSW 9.7 km/h 24.1 km/h 76 % 0.0 mm
10:47 18.4 °C 14.1 °C 1017.2 hPa WSW 12.9 km/h 24.1 km/h 76 % 0.0 mm
10:52 18.4 °C 13.9 °C 1017.2 hPa WSW 14.5 km/h 24.1 km/h 75 % 0.0 mm
10:57 18.6 °C 14.1 °C 1017.2 hPa WNW 9.7 km/h 22.5 km/h 75 % 0.0 mm
11:02 18.5 °C 14.2 °C 1017.2 hPa West 9.7 km/h 22.5 km/h 76 % 0.0 mm
11:07 18.7 °C 14.2 °C 1017.2 hPa SW 4.8 km/h 19.3 km/h 75 % 0.0 mm
11:12 18.7 °C 14.0 °C 1017.2 hPa WSW 12.9 km/h 19.3 km/h 74 % 0.0 mm
11:17 18.9 °C 14.0 °C 1017.2 hPa WSW 14.5 km/h 22.5 km/h 73 % 0.0 mm
11:22 18.9 °C 14.2 °C 1017.2 hPa WSW 8.0 km/h 22.5 km/h 74 % 0.0 mm
11:27 19.1 °C 13.9 °C 1017.2 hPa SW 12.9 km/h 22.5 km/h 72 % 0.0 mm
11:32 19.4 °C 14.0 °C 1017.2 hPa WSW 12.9 km/h 19.3 km/h 71 % 0.0 mm
11:37 19.4 °C 14.0 °C 1017.2 hPa SW 11.3 km/h 22.5 km/h 71 % 0.0 mm
11:42 19.8 °C 14.4 °C 1017.2 hPa SW 6.4 km/h 22.5 km/h 71 % 0.0 mm
11:47 20.0 °C 14.1 °C 1016.8 hPa SW 12.9 km/h 22.5 km/h 69 % 0.0 mm
11:52 20.2 °C 14.1 °C 1016.8 hPa SW 9.7 km/h 20.9 km/h 68 % 0.0 mm
11:57 20.5 °C 14.4 °C 1016.8 hPa WNW 6.4 km/h 22.5 km/h 68 % 0.0 mm
12:02 20.7 °C 14.1 °C 1016.8 hPa West 8.0 km/h 22.5 km/h 66 % 0.0 mm
12:07 21.0 °C 14.2 °C 1016.8 hPa WNW 9.7 km/h 19.3 km/h 65 % 0.0 mm
12:12 21.2 °C 14.4 °C 1016.5 hPa SW 6.4 km/h 16.1 km/h 65 % 0.0 mm
12:17 21.2 °C 13.9 °C 1016.5 hPa SW 16.1 km/h 22.5 km/h 63 % 0.0 mm
12:22 21.2 °C 14.1 °C 1016.5 hPa WSW 11.3 km/h 22.5 km/h 64 % 0.0 mm
12:27 21.3 °C 14.2 °C 1016.5 hPa South 3.2 km/h 20.9 km/h 64 % 0.0 mm
12:32 21.8 °C 14.2 °C 1016.5 hPa SW 16.1 km/h 20.9 km/h 62 % 0.0 mm
12:37 21.9 °C 14.0 °C 1016.5 hPa WSW 9.7 km/h 20.9 km/h 61 % 0.0 mm
12:42 22.1 °C 14.5 °C 1016.1 hPa WNW 3.2 km/h 20.9 km/h 62 % 0.0 mm
12:47 22.3 °C 14.4 °C 1016.1 hPa WSW 4.8 km/h 20.9 km/h 61 % 0.0 mm
12:52 22.6 °C 14.2 °C 1016.1 hPa SW 9.7 km/h 25.7 km/h 59 % 0.0 mm
13:02 22.4 °C 13.7 °C 1016.1 hPa SW 16.1 km/h 25.7 km/h 58 % 0.0 mm
13:07 22.7 °C 14.5 °C 1016.1 hPa SW 4.8 km/h 25.7 km/h 60 % 0.0 mm
13:12 23.1 °C 14.1 °C 1016.1 hPa SW 16.1 km/h 25.7 km/h 57 % 0.0 mm
13:17 23.1 °C 14.1 °C 1016.1 hPa SW 12.9 km/h 25.7 km/h 57 % 0.0 mm
13:22 23.2 °C 14.5 °C 1015.8 hPa SW 12.9 km/h 22.5 km/h 58 % 0.0 mm
13:27 23.4 °C 14.4 °C 1015.8 hPa West 9.7 km/h 22.5 km/h 57 % 0.0 mm
13:32 23.6 °C 14.9 °C 1015.8 hPa SSW 6.4 km/h 22.5 km/h 58 % 0.0 mm
13:37 23.6 °C 14.6 °C 1015.8 hPa SW 11.3 km/h 22.5 km/h 57 % 0.0 mm
13:42 23.5 °C 14.5 °C 1015.8 hPa WSW 3.2 km/h 22.5 km/h 57 % 0.0 mm
13:52 23.7 °C 14.7 °C 1015.8 hPa SW 9.7 km/h 29.0 km/h 57 % 0.0 mm
13:57 23.9 °C 14.6 °C 1015.8 hPa WSW 16.1 km/h 29.0 km/h 56 % 0.0 mm
14:02 24.2 °C 15.1 °C 1015.8 hPa WSW 12.9 km/h 25.7 km/h 57 % 0.0 mm
14:07 24.8 °C 14.6 °C 1015.5 hPa SW 16.1 km/h 20.9 km/h 53 % 0.0 mm
14:12 24.4 °C 14.5 °C 1015.5 hPa SW 14.5 km/h 24.1 km/h 54 % 0.0 mm
14:17 24.6 °C 14.7 °C 1015.5 hPa SW 8.0 km/h 24.1 km/h 54 % 0.0 mm
14:22 24.9 °C 14.4 °C 1015.5 hPa SW 8.0 km/h 24.1 km/h 52 % 0.0 mm
14:27 25.1 °C 14.6 °C 1015.5 hPa West 9.7 km/h 24.1 km/h 52 % 0.0 mm
14:32 25.3 °C 14.7 °C 1015.5 hPa West 19.3 km/h 22.5 km/h 52 % 0.0 mm
14:37 25.3 °C 14.4 °C 1015.1 hPa SSW 12.9 km/h 25.7 km/h 51 % 0.0 mm
14:42 25.3 °C 14.4 °C 1015.1 hPa SW 14.5 km/h 25.7 km/h 51 % 0.0 mm
14:47 25.5 °C 14.3 °C 1015.1 hPa WNW 9.7 km/h 25.7 km/h 50 % 0.0 mm
14:52 25.6 °C 14.4 °C 1015.1 hPa WSW 14.5 km/h 25.7 km/h 50 % 0.0 mm
14:57 25.7 °C 14.8 °C 1015.1 hPa SW 12.9 km/h 19.3 km/h 51 % 0.0 mm
15:02 25.6 °C 14.1 °C 1015.1 hPa WSW 11.3 km/h 25.7 km/h 49 % 0.0 mm
15:07 25.8 °C 14.3 °C 1015.1 hPa WNW 6.4 km/h 25.7 km/h 49 % 0.0 mm
15:12 25.9 °C 14.4 °C 1015.1 hPa SW 19.3 km/h 25.7 km/h 49 % 0.0 mm
15:17 25.8 °C 14.6 °C 1015.1 hPa West 4.8 km/h 25.7 km/h 50 % 0.0 mm
15:27 26.3 °C 14.4 °C 1014.8 hPa SSW 16.1 km/h 25.7 km/h 48 % 0.0 mm
15:32 26.2 °C 14.3 °C 1014.8 hPa SW 16.1 km/h 22.5 km/h 48 % 0.0 mm
15:37 26.3 °C 14.7 °C 1014.8 hPa South 4.8 km/h 22.5 km/h 49 % 0.0 mm
15:42 26.8 °C 14.9 °C 1014.8 hPa SW 17.7 km/h 22.5 km/h 48 % 0.0 mm
15:47 26.7 °C 14.8 °C 1014.4 hPa SW 19.3 km/h 22.5 km/h 48 % 0.0 mm
15:52 26.6 °C 14.7 °C 1014.4 hPa SW 6.4 km/h 24.1 km/h 48 % 0.0 mm
15:57 26.8 °C 14.2 °C 1014.4 hPa SW 24.1 km/h 24.1 km/h 46 % 0.0 mm
16:02 26.7 °C 14.1 °C 1014.4 hPa West 4.8 km/h 25.7 km/h 46 % 0.0 mm
16:07 27.1 °C 14.8 °C 1014.4 hPa West 8.0 km/h 25.7 km/h 47 % 0.0 mm
16:12 27.2 °C 14.6 °C 1014.4 hPa SSE 11.3 km/h 25.7 km/h 46 % 0.0 mm
16:17 27.1 °C 14.1 °C 1014.4 hPa WSW 12.9 km/h 20.9 km/h 45 % 0.0 mm
16:22 27.2 °C 14.2 °C 1014.1 hPa SW 14.5 km/h 24.1 km/h 45 % 0.0 mm
16:32 27.2 °C 13.9 °C 1013.8 hPa SW 14.5 km/h 29.0 km/h 44 % 0.0 mm
16:37 27.4 °C 13.7 °C 1013.8 hPa West 4.8 km/h 29.0 km/h 43 % 0.0 mm
16:42 27.4 °C 13.7 °C 1013.8 hPa SW 11.3 km/h 29.0 km/h 43 % 0.0 mm
16:47 27.6 °C 14.2 °C 1013.8 hPa SSW 14.5 km/h 25.7 km/h 44 % 0.0 mm
16:52 27.7 °C 14.3 °C 1013.8 hPa SW 8.0 km/h 25.7 km/h 44 % 0.0 mm
16:57 28.0 °C 14.6 °C 1013.8 hPa West 4.8 km/h 24.1 km/h 44 % 0.0 mm
17:02 28.2 °C 14.4 °C 1013.8 hPa West 8.0 km/h 24.1 km/h 43 % 0.0 mm
17:07 28.1 °C 14.3 °C 1013.8 hPa SSW 8.0 km/h 19.3 km/h 43 % 0.0 mm
17:12 28.2 °C 14.4 °C 1013.8 hPa SW 8.0 km/h 19.3 km/h 43 % 0.0 mm
17:17 28.1 °C 14.0 °C 1013.8 hPa WSW 17.7 km/h 22.5 km/h 42 % 0.0 mm
17:22 28.2 °C 14.1 °C 1013.4 hPa WNW 6.4 km/h 22.5 km/h 42 % 0.0 mm
17:27 28.6 °C 14.4 °C 1013.4 hPa SW 11.3 km/h 22.5 km/h 42 % 0.0 mm
17:32 28.4 °C 13.5 °C 1013.4 hPa WSW 9.7 km/h 20.9 km/h 40 % 0.0 mm
17:37 28.6 °C 13.7 °C 1013.4 hPa SW 9.7 km/h 20.9 km/h 40 % 0.0 mm
17:42 28.8 °C 13.9 °C 1013.4 hPa South 11.3 km/h 25.7 km/h 40 % 0.0 mm
17:47 28.8 °C 13.5 °C 1013.4 hPa SSW 3.2 km/h 25.7 km/h 39 % 0.0 mm
17:52 28.8 °C 14.2 °C 1013.4 hPa WSW 8.0 km/h 25.7 km/h 41 % 0.0 mm
17:57 28.6 °C 13.7 °C 1013.4 hPa SW 16.1 km/h 24.1 km/h 40 % 0.0 mm
18:02 28.4 °C 13.5 °C 1013.4 hPa SW 17.7 km/h 24.1 km/h 40 % 0.0 mm
18:07 28.4 °C 13.9 °C 1013.4 hPa West 8.0 km/h 24.1 km/h 41 % 0.0 mm
18:12 28.4 °C 14.2 °C 1013.4 hPa SW 8.0 km/h 22.5 km/h 42 % 0.0 mm
18:17 28.3 °C 13.8 °C 1013.4 hPa WSW 11.3 km/h 22.5 km/h 41 % 0.0 mm
18:22 28.3 °C 13.8 °C 1013.4 hPa WSW 12.9 km/h 25.7 km/h 41 % 0.0 mm
18:27 28.1 °C 14.0 °C 1013.4 hPa SSW 11.3 km/h 25.7 km/h 42 % 0.0 mm
18:32 28.2 °C 14.1 °C 1013.4 hPa West 6.4 km/h 27.4 km/h 42 % 0.0 mm
18:37 28.4 °C 13.9 °C 1013.4 hPa WSW 6.4 km/h 27.4 km/h 41 % 0.0 mm
18:47 28.5 °C 14.0 °C 1013.1 hPa SW 16.1 km/h 22.5 km/h 41 % 0.0 mm
18:52 28.6 °C 14.1 °C 1013.1 hPa WSW 3.2 km/h 22.5 km/h 41 % 0.0 mm
18:57 28.4 °C 13.9 °C 1013.1 hPa WSW 14.5 km/h 22.5 km/h 41 % 0.0 mm
19:02 28.3 °C 13.8 °C 1013.1 hPa SW 3.2 km/h 19.3 km/h 41 % 0.0 mm
19:07 28.3 °C 13.4 °C 1013.1 hPa SSW 4.8 km/h 19.3 km/h 40 % 0.0 mm
19:12 28.1 °C 13.2 °C 1013.1 hPa WNW 9.7 km/h 17.7 km/h 40 % 0.0 mm
19:17 28.0 °C 13.1 °C 1013.1 hPa West 4.8 km/h 24.1 km/h 40 % 0.0 mm
19:22 27.9 °C 13.1 °C 1013.1 hPa WSW 8.0 km/h 24.1 km/h 40 % 0.0 mm
19:32 27.7 °C 12.9 °C 1013.1 hPa WSW 6.4 km/h 20.9 km/h 40 % 0.0 mm
19:37 27.6 °C 13.2 °C 1013.1 hPa West 8.0 km/h 20.9 km/h 41 % 0.0 mm
19:42 27.4 °C 12.6 °C 1013.1 hPa SSW 6.4 km/h 22.5 km/h 40 % 0.0 mm
19:47 27.3 °C 12.5 °C 1013.1 hPa WSW 3.2 km/h 22.5 km/h 40 % 0.0 mm
19:52 27.2 °C 12.4 °C 1013.4 hPa West 6.4 km/h 17.7 km/h 40 % 0.0 mm
19:57 27.1 °C 12.3 °C 1013.4 hPa West 6.4 km/h 20.9 km/h 40 % 0.0 mm
20:02 26.9 °C 12.2 °C 1013.4 hPa WNW 4.8 km/h 20.9 km/h 40 % 0.0 mm
20:07 26.8 °C 12.4 °C 1013.4 hPa WNW 6.4 km/h 17.7 km/h 41 % 0.0 mm
20:12 26.7 °C 13.1 °C 1013.4 hPa West 3.2 km/h 12.9 km/h 43 % 0.0 mm
20:17 26.6 °C 13.7 °C 1013.4 hPa West 3.2 km/h 12.9 km/h 45 % 0.0 mm
20:22 26.6 °C 14.0 °C 1013.8 hPa WNW 3.2 km/h 8.0 km/h 46 % 0.0 mm
20:27 26.4 °C 14.2 °C 1013.8 hPa WNW 4.8 km/h 8.0 km/h 47 % 0.0 mm
20:32 26.4 °C 14.2 °C 1013.8 hPa West 4.8 km/h 8.0 km/h 47 % 0.0 mm
20:37 26.3 °C 14.4 °C 1013.8 hPa WNW 3.2 km/h 8.0 km/h 48 % 0.0 mm
20:42 26.1 °C 14.2 °C 1013.8 hPa West 3.2 km/h 8.0 km/h 48 % 0.0 mm
20:47 25.9 °C 14.0 °C 1013.8 hPa West 4.8 km/h 9.7 km/h 48 % 0.0 mm
20:52 25.7 °C 14.2 °C 1013.8 hPa West 6.4 km/h 9.7 km/h 49 % 0.0 mm
20:57 25.6 °C 14.1 °C 1013.8 hPa WNW 4.8 km/h 9.7 km/h 49 % 0.0 mm
21:02 25.4 °C 14.2 °C 1013.8 hPa West 3.2 km/h 9.7 km/h 50 % 0.0 mm
21:07 25.3 °C 14.1 °C 1013.8 hPa Calm   9.7 km/h 50 % 0.0 mm
21:12 25.2 °C 14.3 °C 1013.8 hPa Calm   6.4 km/h 51 % 0.0 mm
21:17 25.0 °C 14.2 °C 1013.8 hPa Calm   6.4 km/h 51 % 0.0 mm
21:22 24.9 °C 14.1 °C 1013.8 hPa West 1.6 km/h 4.8 km/h 51 % 0.0 mm
21:27 24.7 °C 14.2 °C 1013.8 hPa WNW 1.6 km/h 4.8 km/h 52 % 0.0 mm
21:32 24.6 °C 14.1 °C 1013.8 hPa WSW 3.2 km/h 4.8 km/h 52 % 0.0 mm
21:37 24.4 °C 14.2 °C 1013.8 hPa West 1.6 km/h 4.8 km/h 53 % 0.0 mm
21:42 24.2 °C 14.0 °C 1013.8 hPa WNW 3.2 km/h 4.8 km/h 53 % 0.0 mm
21:47 24.1 °C 14.2 °C 1013.4 hPa NW 3.2 km/h 6.4 km/h 54 % 0.0 mm
21:52 24.0 °C 14.1 °C 1013.4 hPa WNW 3.2 km/h 6.4 km/h 54 % 0.0 mm
21:57 23.8 °C 13.9 °C 1013.8 hPa West 3.2 km/h 8.0 km/h 54 % 0.0 mm
22:02 23.7 °C 13.8 °C 1013.8 hPa West 1.6 km/h 8.0 km/h 54 % 0.0 mm
22:07 23.4 °C 14.1 °C 1013.8 hPa West 1.6 km/h 6.4 km/h 56 % 0.0 mm
22:12 23.2 °C 14.2 °C 1013.8 hPa Calm   4.8 km/h 57 % 0.0 mm
22:17 22.9 °C 14.2 °C 1013.8 hPa West 1.6 km/h 4.8 km/h 58 % 0.0 mm
22:22 22.8 °C 14.4 °C 1013.8 hPa Calm   3.2 km/h 59 % 0.0 mm
22:27 22.4 °C 14.3 °C 1013.8 hPa Calm   3.2 km/h 60 % 0.0 mm
22:32 22.1 °C 14.2 °C 1013.8 hPa WNW 1.6 km/h 3.2 km/h 61 % 0.0 mm
22:37 21.8 °C 13.9 °C 1013.8 hPa Calm   1.6 km/h 61 % 0.0 mm
22:42 21.7 °C 13.8 °C 1013.8 hPa WNW 1.6 km/h 3.2 km/h 61 % 0.0 mm
22:47 21.9 °C 13.8 °C 1013.8 hPa West 1.6 km/h 4.8 km/h 60 % 0.0 mm
22:52 21.9 °C 13.5 °C 1013.8 hPa West 1.6 km/h 4.8 km/h 59 % 0.0 mm
22:57 22.0 °C 13.6 °C 1013.8 hPa West 4.8 km/h 6.4 km/h 59 % 0.0 mm
23:02 22.1 °C 13.7 °C 1013.8 hPa WSW 1.6 km/h 8.0 km/h 59 % 0.0 mm
23:07 22.1 °C 13.4 °C 1013.8 hPa Calm   8.0 km/h 58 % 0.0 mm
23:12 22.1 °C 13.4 °C 1013.8 hPa WSW 1.6 km/h 6.4 km/h 58 % 0.0 mm
23:17 22.0 °C 13.6 °C 1013.8 hPa Calm   4.8 km/h 59 % 0.0 mm
23:22 21.7 °C 13.6 °C 1013.8 hPa Calm   4.8 km/h 60 % 0.0 mm
23:27 21.5 °C 13.4 °C 1013.8 hPa Calm   4.8 km/h 60 % 0.0 mm
23:32 21.5 °C 13.7 °C 1013.8 hPa Calm     61 % 0.0 mm
23:37 21.6 °C 13.5 °C 1013.8 hPa Calm     60 % 0.0 mm
23:42 21.6 °C 13.8 °C 1013.8 hPa Calm     61 % 0.0 mm
23:52 21.5 °C 13.9 °C 1013.8 hPa NW 1.6 km/h   62 % 0.0 mm
23:57 21.6 °C 14.0 °C 1013.8 hPa Calm   6.4 km/h 62 % 0.0 mm
Meteo18
Compliments of Weather Underground - 4 mb

Script developed by  Jim McMurry - jmcmurry@mwt.net Adapted for the template by  Wim van der Kuil - Leuven-Template.eu

You find our weather info also at:

European Weather Network

Weather Underground

Equipment we use:

Weather-station
Davis Vue

Weather-program
Meteohub

Weather-server
Raspberry PI 2 B+

Provider
1 and 1

Davis Vue

Meteohub

Raspberry PI 2 B+

1 and 1